sensor_id;sensor_type;location;lat;lon;timestamp;pressure;altitude;pressure_sealevel;temperature;humidity
64711;BME280;51139;45.626;6.850;2023-05-08T00:00:25;82258.91;;;8.61;100.00
64711;BME280;51139;45.626;6.850;2023-05-08T00:02:50;82258.31;;;8.06;100.00
64711;BME280;51139;45.626;6.850;2023-05-08T00:05:16;82252.06;;;8.50;100.00
64711;BME280;51139;45.626;6.850;2023-05-08T00:07:41;82245.94;;;8.32;100.00
64711;BME280;51139;45.626;6.850;2023-05-08T00:10:09;82257.91;;;8.33;100.00
64711;BME280;51139;45.626;6.850;2023-05-08T00:12:35;82252.91;;;8.68;100.00
64711;BME280;51139;45.626;6.850;2023-05-08T00:15:01;82244.50;;;8.46;100.00
64711;BME280;51139;45.626;6.850;2023-05-08T00:17:27;82247.69;;;8.37;100.00
64711;BME280;51139;45.626;6.850;2023-05-08T00:19:53;82250.09;;;8.58;100.00
64711;BME280;51139;45.626;6.850;2023-05-08T00:22:19;82248.25;;;8.84;100.00
64711;BME280;51139;45.626;6.850;2023-05-08T00:24:44;82249.88;;;8.72;100.00
64711;BME280;51139;45.626;6.850;2023-05-08T00:27:10;82251.34;;;8.57;100.00
64711;BME280;51139;45.626;6.850;2023-05-08T00:29:35;82252.25;;;8.44;100.00
64711;BME280;51139;45.626;6.850;2023-05-08T00:32:01;82251.16;;;8.63;100.00
64711;BME280;51139;45.626;6.850;2023-05-08T00:34:26;82243.91;;;8.71;100.00
64711;BME280;51139;45.626;6.850;2023-05-08T00:36:52;82242.56;;;8.96;100.00
64711;BME280;51139;45.626;6.850;2023-05-08T00:39:17;82241.28;;;9.04;100.00
64711;BME280;51139;45.626;6.850;2023-05-08T00:41:43;82240.28;;;8.92;100.00
64711;BME280;51139;45.626;6.850;2023-05-08T00:44:08;82248.28;;;8.76;100.00
64711;BME280;51139;45.626;6.850;2023-05-08T00:46:34;82239.94;;;9.21;100.00
64711;BME280;51139;45.626;6.850;2023-05-08T00:49:01;82240.38;;;8.69;100.00
64711;BME280;51139;45.626;6.850;2023-05-08T00:51:28;82252.00;;;8.73;100.00
64711;BME280;51139;45.626;6.850;2023-05-08T00:53:54;82246.72;;;8.73;100.00
64711;BME280;51139;45.626;6.850;2023-05-08T00:56:20;82242.59;;;9.21;100.00
64711;BME280;51139;45.626;6.850;2023-05-08T00:58:47;82236.75;;;8.49;100.00
64711;BME280;51139;45.626;6.850;2023-05-08T01:01:13;82247.81;;;7.98;100.00
64711;BME280;51139;45.626;6.850;2023-05-08T01:03:38;82248.84;;;8.03;100.00
64711;BME280;51139;45.626;6.850;2023-05-08T01:06:04;82237.44;;;8.57;100.00
64711;BME280;51139;45.626;6.850;2023-05-08T01:08:31;82240.75;;;9.06;100.00
64711;BME280;51139;45.626;6.850;2023-05-08T01:11:02;82235.03;;;9.17;100.00
64711;BME280;51139;45.626;6.850;2023-05-08T01:14:06;82232.34;;;9.51;100.00
64711;BME280;51139;45.626;6.850;2023-05-08T01:16:45;82244.22;;;9.42;100.00
64711;BME280;51139;45.626;6.850;2023-05-08T01:22:28;82241.94;;;9.13;100.00
64711;BME280;51139;45.626;6.850;2023-05-08T01:32:42;82238.13;;;8.65;100.00
64711;BME280;51139;45.626;6.850;2023-05-08T01:35:23;82235.06;;;8.84;100.00
64711;BME280;51139;45.626;6.850;2023-05-08T01:40:51;82232.09;;;9.39;100.00
64711;BME280;51139;45.626;6.850;2023-05-08T01:46:18;82233.78;;;8.44;100.00
64711;BME280;51139;45.626;6.850;2023-05-08T01:49:05;82229.78;;;8.76;100.00
64711;BME280;51139;45.626;6.850;2023-05-08T01:51:38;82231.34;;;9.13;100.00
64711;BME280;51139;45.626;6.850;2023-05-08T01:54:07;82241.56;;;9.16;100.00
64711;BME280;51139;45.626;6.850;2023-05-08T01:56:34;82236.16;;;9.07;100.00
64711;BME280;51139;45.626;6.850;2023-05-08T01:59:01;82240.63;;;8.55;100.00
64711;BME280;51139;45.626;6.850;2023-05-08T02:01:31;82242.09;;;8.82;100.00
64711;BME280;51139;45.626;6.850;2023-05-08T02:03:58;82243.22;;;7.99;100.00
64711;BME280;51139;45.626;6.850;2023-05-08T02:06:25;82246.81;;;8.83;100.00
64711;BME280;51139;45.626;6.850;2023-05-08T02:08:53;82243.59;;;8.59;100.00
64711;BME280;51139;45.626;6.850;2023-05-08T02:11:21;82256.44;;;8.63;100.00
64711;BME280;51139;45.626;6.850;2023-05-08T02:13:49;82239.84;;;8.70;100.00
64711;BME280;51139;45.626;6.850;2023-05-08T02:16:16;82242.72;;;8.57;100.00
64711;BME280;51139;45.626;6.850;2023-05-08T02:18:47;82246.06;;;7.85;100.00
64711;BME280;51139;45.626;6.850;2023-05-08T02:21:15;82248.53;;;7.68;100.00
64711;BME280;51139;45.626;6.850;2023-05-08T02:23:43;82254.00;;;7.54;100.00
64711;BME280;51139;45.626;6.850;2023-05-08T02:26:10;82248.63;;;8.16;100.00
64711;BME280;51139;45.626;6.850;2023-05-08T02:28:38;82247.66;;;7.65;100.00
64711;BME280;51139;45.626;6.850;2023-05-08T02:31:05;82245.69;;;7.97;100.00
64711;BME280;51139;45.626;6.850;2023-05-08T02:33:31;82243.19;;;8.14;100.00
64711;BME280;51139;45.626;6.850;2023-05-08T02:35:57;82240.03;;;8.08;100.00
64711;BME280;51139;45.626;6.850;2023-05-08T02:38:24;82227.47;;;8.32;100.00
64711;BME280;51139;45.626;6.850;2023-05-08T02:40:54;82230.25;;;8.42;100.00
64711;BME280;51139;45.626;6.850;2023-05-08T02:43:21;82241.50;;;7.47;100.00
64711;BME280;51139;45.626;6.850;2023-05-08T02:45:53;82238.34;;;7.25;100.00
64711;BME280;51139;45.626;6.850;2023-05-08T02:48:27;82240.09;;;7.07;100.00
64711;BME280;51139;45.626;6.850;2023-05-08T02:53:46;82235.53;;;7.54;100.00
64711;BME280;51139;45.626;6.850;2023-05-08T02:56:26;82242.66;;;8.08;100.00
64711;BME280;51139;45.626;6.850;2023-05-08T02:59:00;82248.00;;;7.30;100.00
64711;BME280;51139;45.626;6.850;2023-05-08T03:04:23;82245.38;;;7.30;100.00
64711;BME280;51139;45.626;6.850;2023-05-08T03:06:51;82243.19;;;8.14;100.00
64711;BME280;51139;45.626;6.850;2023-05-08T03:09:20;82238.50;;;7.27;100.00
64711;BME280;51139;45.626;6.850;2023-05-08T03:11:48;82238.16;;;7.23;100.00
64711;BME280;51139;45.626;6.850;2023-05-08T03:14:18;82243.78;;;7.27;100.00
64711;BME280;51139;45.626;6.850;2023-05-08T03:16:46;82234.97;;;6.94;100.00
64711;BME280;51139;45.626;6.850;2023-05-08T03:19:25;82239.22;;;7.05;100.00
64711;BME280;51139;45.626;6.850;2023-05-08T03:21:52;82235.16;;;7.81;100.00
64711;BME280;51139;45.626;6.850;2023-05-08T03:24:19;82236.75;;;7.77;100.00
64711;BME280;51139;45.626;6.850;2023-05-08T03:26:46;82236.53;;;8.06;100.00
64711;BME280;51139;45.626;6.850;2023-05-08T03:29:12;82241.38;;;8.25;100.00
64711;BME280;51139;45.626;6.850;2023-05-08T03:31:40;82232.63;;;8.14;100.00
64711;BME280;51139;45.626;6.850;2023-05-08T03:34:07;82229.56;;;7.62;100.00
64711;BME280;51139;45.626;6.850;2023-05-08T03:36:34;82231.59;;;8.10;100.00
64711;BME280;51139;45.626;6.850;2023-05-08T03:39:00;82228.78;;;8.08;100.00
64711;BME280;51139;45.626;6.850;2023-05-08T03:41:26;82232.22;;;8.26;100.00
64711;BME280;51139;45.626;6.850;2023-05-08T03:43:53;82226.56;;;8.45;100.00
64711;BME280;51139;45.626;6.850;2023-05-08T03:46:19;82230.16;;;8.16;100.00
64711;BME280;51139;45.626;6.850;2023-05-08T03:48:45;82231.81;;;7.81;100.00
64711;BME280;51139;45.626;6.850;2023-05-08T03:51:11;82235.88;;;7.27;100.00
64711;BME280;51139;45.626;6.850;2023-05-08T03:53:37;82238.88;;;7.55;100.00
64711;BME280;51139;45.626;6.850;2023-05-08T03:56:03;82241.38;;;8.32;100.00
64711;BME280;51139;45.626;6.850;2023-05-08T04:01:20;82243.94;;;8.64;100.00
64711;BME280;51139;45.626;6.850;2023-05-08T04:09:21;82244.78;;;8.02;100.00
64711;BME280;51139;45.626;6.850;2023-05-08T04:12:04;82246.09;;;8.34;100.00
64711;BME280;51139;45.626;6.850;2023-05-08T04:15:09;82246.44;;;8.38;100.00
64711;BME280;51139;45.626;6.850;2023-05-08T04:17:41;82238.91;;;8.27;100.00
64711;BME280;51139;45.626;6.850;2023-05-08T04:20:10;82247.38;;;8.17;100.00
64711;BME280;51139;45.626;6.850;2023-05-08T04:22:38;82248.16;;;7.87;100.00
64711;BME280;51139;45.626;6.850;2023-05-08T04:25:05;82251.22;;;8.32;100.00
64711;BME280;51139;45.626;6.850;2023-05-08T04:27:32;82247.38;;;8.82;100.00
64711;BME280;51139;45.626;6.850;2023-05-08T04:29:58;82251.34;;;8.57;100.00
64711;BME280;51139;45.626;6.850;2023-05-08T04:32:24;82263.91;;;8.33;100.00
64711;BME280;51139;45.626;6.850;2023-05-08T04:34:51;82261.41;;;8.36;100.00
64711;BME280;51139;45.626;6.850;2023-05-08T04:37:35;82255.00;;;8.70;100.00
64711;BME280;51139;45.626;6.850;2023-05-08T04:40:02;82259.34;;;8.26;100.00
64711;BME280;51139;45.626;6.850;2023-05-08T04:42:28;82258.78;;;8.36;100.00
64711;BME280;51139;45.626;6.850;2023-05-08T04:44:54;82253.41;;;8.67;100.00
64711;BME280;51139;45.626;6.850;2023-05-08T04:47:20;82255.25;;;8.41;100.00
64711;BME280;51139;45.626;6.850;2023-05-08T04:49:45;82262.28;;;8.46;100.00
64711;BME280;51139;45.626;6.850;2023-05-08T04:52:11;82256.63;;;8.57;100.00
64711;BME280;51139;45.626;6.850;2023-05-08T04:54:36;82253.91;;;9.14;100.00
64711;BME280;51139;45.626;6.850;2023-05-08T04:57:02;82259.69;;;8.87;100.00
64711;BME280;51139;45.626;6.850;2023-05-08T04:59:28;82257.44;;;9.09;100.00
64711;BME280;51139;45.626;6.850;2023-05-08T05:01:54;82260.34;;;9.28;100.00
64711;BME280;51139;45.626;6.850;2023-05-08T05:04:23;82266.56;;;8.82;100.00
64711;BME280;51139;45.626;6.850;2023-05-08T05:06:48;82263.47;;;9.01;100.00
64711;BME280;51139;45.626;6.850;2023-05-08T05:09:14;82267.66;;;7.99;100.00
64711;BME280;51139;45.626;6.850;2023-05-08T05:11:40;82270.66;;;7.34;100.00
64711;BME280;51139;45.626;6.850;2023-05-08T05:14:05;82282.28;;;7.62;100.00
64711;BME280;51139;45.626;6.850;2023-05-08T05:16:31;82276.25;;;8.23;100.00
64711;BME280;51139;45.626;6.850;2023-05-08T05:18:57;82281.53;;;7.92;100.00
64711;BME280;51139;45.626;6.850;2023-05-08T05:21:23;82283.66;;;7.94;100.00
64711;BME280;51139;45.626;6.850;2023-05-08T05:23:48;82279.44;;;7.44;100.00
64711;BME280;51139;45.626;6.850;2023-05-08T05:26:14;82292.09;;;7.22;100.00
64711;BME280;51139;45.626;6.850;2023-05-08T05:28:39;82289.81;;;7.26;100.00
64711;BME280;51139;45.626;6.850;2023-05-08T05:31:04;82291.41;;;7.53;100.00
64711;BME280;51139;45.626;6.850;2023-05-08T05:33:30;82277.72;;;7.47;100.00
64711;BME280;51139;45.626;6.850;2023-05-08T05:35:55;82290.91;;;7.54;100.00
64711;BME280;51139;45.626;6.850;2023-05-08T05:38:21;82287.91;;;7.58;100.00
64711;BME280;51139;45.626;6.850;2023-05-08T05:40:46;82281.72;;;7.94;100.00
64711;BME280;51139;45.626;6.850;2023-05-08T05:43:12;82286.44;;;8.11;100.00
64711;BME280;51139;45.626;6.850;2023-05-08T05:45:37;82280.66;;;8.13;100.00
64711;BME280;51139;45.626;6.850;2023-05-08T05:48:04;82280.19;;;7.52;100.00
64711;BME280;51139;45.626;6.850;2023-05-08T05:50:29;82274.03;;;7.57;100.00
64711;BME280;51139;45.626;6.850;2023-05-08T05:52:55;82284.00;;;7.12;100.00
64711;BME280;51139;45.626;6.850;2023-05-08T05:55:20;82274.88;;;7.29;100.00
64711;BME280;51139;45.626;6.850;2023-05-08T05:57:46;82281.78;;;6.64;100.00
64711;BME280;51139;45.626;6.850;2023-05-08T06:00:12;82287.72;;;6.57;100.00
64711;BME280;51139;45.626;6.850;2023-05-08T06:02:38;82283.75;;;6.71;100.00
64711;BME280;51139;45.626;6.850;2023-05-08T06:05:04;82280.75;;;6.67;100.00
64711;BME280;51139;45.626;6.850;2023-05-08T06:07:31;82283.28;;;6.96;100.00
64711;BME280;51139;45.626;6.850;2023-05-08T06:09:57;82277.78;;;6.86;100.00
64711;BME280;51139;45.626;6.850;2023-05-08T06:12:23;82275.94;;;7.26;100.00
64711;BME280;51139;45.626;6.850;2023-05-08T06:14:50;82273.63;;;8.08;100.00
64711;BME280;51139;45.626;6.850;2023-05-08T06:17:16;82269.00;;;8.31;100.00
64711;BME280;51139;45.626;6.850;2023-05-08T06:19:41;82270.09;;;8.05;100.00
64711;BME280;51139;45.626;6.850;2023-05-08T06:22:07;82271.00;;;8.00;100.00
64711;BME280;51139;45.626;6.850;2023-05-08T06:24:32;82278.53;;;8.19;100.00
64711;BME280;51139;45.626;6.850;2023-05-08T06:26:58;82278.03;;;8.13;100.00
64711;BME280;51139;45.626;6.850;2023-05-08T06:29:23;82287.38;;;7.91;100.00
64711;BME280;51139;45.626;6.850;2023-05-08T06:31:48;82282.78;;;7.91;100.00
64711;BME280;51139;45.626;6.850;2023-05-08T06:34:14;82283.81;;;8.19;100.00
64711;BME280;51139;45.626;6.850;2023-05-08T06:36:39;82278.38;;;8.09;100.00
64711;BME280;51139;45.626;6.850;2023-05-08T06:39:05;82285.25;;;7.27;100.00
64711;BME280;51139;45.626;6.850;2023-05-08T06:41:31;82272.25;;;7.21;100.00
64711;BME280;51139;45.626;6.850;2023-05-08T06:43:58;82274.34;;;7.46;100.00
64711;BME280;51139;45.626;6.850;2023-05-08T06:46:23;82282.00;;;6.90;100.00
64711;BME280;51139;45.626;6.850;2023-05-08T06:48:49;82281.16;;;6.95;100.00
64711;BME280;51139;45.626;6.850;2023-05-08T06:51:14;82281.75;;;7.63;100.00
64711;BME280;51139;45.626;6.850;2023-05-08T06:53:41;82279.81;;;7.33;100.00
64711;BME280;51139;45.626;6.850;2023-05-08T06:56:06;82285.94;;;7.27;100.00
64711;BME280;51139;45.626;6.850;2023-05-08T06:58:32;82285.78;;;7.80;100.00
64711;BME280;51139;45.626;6.850;2023-05-08T07:01:00;82285.03;;;8.10;100.00
64711;BME280;51139;45.626;6.850;2023-05-08T07:03:26;82292.44;;;7.26;100.00
64711;BME280;51139;45.626;6.850;2023-05-08T07:05:52;82292.97;;;7.33;100.00
64711;BME280;51139;45.626;6.850;2023-05-08T07:08:17;82294.56;;;7.74;100.00
64711;BME280;51139;45.626;6.850;2023-05-08T07:10:43;82290.34;;;7.95;100.00
64711;BME280;51139;45.626;6.850;2023-05-08T07:13:08;82288.53;;;8.28;100.00
64711;BME280;51139;45.626;6.850;2023-05-08T07:15:33;82281.53;;;8.00;100.00
64711;BME280;51139;45.626;6.850;2023-05-08T07:17:59;82298.25;;;7.95;100.00
64711;BME280;51139;45.626;6.850;2023-05-08T07:20:24;82290.72;;;7.68;100.00
64711;BME280;51139;45.626;6.850;2023-05-08T07:22:50;82290.16;;;7.07;100.00
64711;BME280;51139;45.626;6.850;2023-05-08T07:25:15;82292.22;;;7.01;100.00
64711;BME280;51139;45.626;6.850;2023-05-08T07:27:41;82297.38;;;7.92;100.00
64711;BME280;51139;45.626;6.850;2023-05-08T07:30:07;82301.59;;;7.64;100.00
64711;BME280;51139;45.626;6.850;2023-05-08T07:32:33;82302.66;;;8.08;100.00
64711;BME280;51139;45.626;6.850;2023-05-08T07:34:58;82299.75;;;8.52;100.00
64711;BME280;51139;45.626;6.850;2023-05-08T07:37:24;82297.28;;;8.62;100.00
64711;BME280;51139;45.626;6.850;2023-05-08T07:39:50;82293.25;;;8.61;100.00
64711;BME280;51139;45.626;6.850;2023-05-08T07:42:15;82290.94;;;8.65;100.00
64711;BME280;51139;45.626;6.850;2023-05-08T07:44:42;82289.41;;;8.95;100.00
64711;BME280;51139;45.626;6.850;2023-05-08T07:47:07;82293.63;;;8.98;100.00
64711;BME280;51139;45.626;6.850;2023-05-08T07:49:33;82291.81;;;9.09;100.00
64711;BME280;51139;45.626;6.850;2023-05-08T07:51:58;82292.63;;;9.19;100.00
64711;BME280;51139;45.626;6.850;2023-05-08T07:54:23;82294.88;;;9.30;100.00
64711;BME280;51139;45.626;6.850;2023-05-08T07:56:49;82303.84;;;8.94;100.00
64711;BME280;51139;45.626;6.850;2023-05-08T07:59:14;82297.91;;;9.19;100.00
64711;BME280;51139;45.626;6.850;2023-05-08T08:01:40;82296.00;;;9.19;100.00
64711;BME280;51139;45.626;6.850;2023-05-08T08:04:11;82299.38;;;9.45;100.00
64711;BME280;51139;45.626;6.850;2023-05-08T08:06:36;82298.31;;;9.15;100.00
64711;BME280;51139;45.626;6.850;2023-05-08T08:09:02;82304.13;;;9.14;100.00
64711;BME280;51139;45.626;6.850;2023-05-08T08:11:27;82293.81;;;9.59;100.00
64711;BME280;51139;45.626;6.850;2023-05-08T08:13:52;82294.09;;;9.71;100.00
64711;BME280;51139;45.626;6.850;2023-05-08T08:16:18;82295.06;;;9.83;100.00
64711;BME280;51139;45.626;6.850;2023-05-08T08:18:43;82288.63;;;10.19;100.00
64711;BME280;51139;45.626;6.850;2023-05-08T08:21:08;82283.72;;;10.16;100.00
64711;BME280;51139;45.626;6.850;2023-05-08T08:23:34;82284.66;;;10.28;100.00
64711;BME280;51139;45.626;6.850;2023-05-08T08:25:59;82287.53;;;9.80;100.00
64711;BME280;51139;45.626;6.850;2023-05-08T08:28:25;82277.53;;;9.70;100.00
64711;BME280;51139;45.626;6.850;2023-05-08T08:30:50;82287.84;;;9.58;100.00
64711;BME280;51139;45.626;6.850;2023-05-08T08:33:16;82295.38;;;9.37;100.00
64711;BME280;51139;45.626;6.850;2023-05-08T08:35:41;82288.13;;;9.37;100.00
64711;BME280;51139;45.626;6.850;2023-05-08T08:38:06;82290.75;;;9.70;100.00
64711;BME280;51139;45.626;6.850;2023-05-08T08:40:32;82294.06;;;9.45;100.00
64711;BME280;51139;45.626;6.850;2023-05-08T08:43:02;82291.59;;;9.47;100.00
64711;BME280;51139;45.626;6.850;2023-05-08T08:45:27;82289.19;;;9.67;100.00
64711;BME280;51139;45.626;6.850;2023-05-08T08:47:53;82285.41;;;10.03;100.00
64711;BME280;51139;45.626;6.850;2023-05-08T08:50:21;82282.94;;;10.23;100.00
64711;BME280;51139;45.626;6.850;2023-05-08T08:53:00;82279.00;;;10.32;100.00
64711;BME280;51139;45.626;6.850;2023-05-08T08:55:29;82278.19;;;10.21;100.00
64711;BME280;51139;45.626;6.850;2023-05-08T08:58:25;82278.75;;;9.95;100.00
64711;BME280;51139;45.626;6.850;2023-05-08T09:00:51;82283.59;;;10.06;100.00
64711;BME280;51139;45.626;6.850;2023-05-08T09:03:19;82284.34;;;10.24;100.00
64711;BME280;51139;45.626;6.850;2023-05-08T09:05:45;82287.25;;;10.36;99.67
64711;BME280;51139;45.626;6.850;2023-05-08T09:08:13;82286.50;;;10.18;100.00
64711;BME280;51139;45.626;6.850;2023-05-08T09:10:39;82294.28;;;10.16;100.00
64711;BME280;51139;45.626;6.850;2023-05-08T09:13:05;82297.06;;;10.00;100.00
64711;BME280;51139;45.626;6.850;2023-05-08T09:15:32;82297.91;;;10.03;100.00
64711;BME280;51139;45.626;6.850;2023-05-08T09:17:57;82296.75;;;9.96;100.00
64711;BME280;51139;45.626;6.850;2023-05-08T09:20:23;82299.94;;;9.95;100.00
64711;BME280;51139;45.626;6.850;2023-05-08T09:22:50;82297.06;;;10.26;100.00
64711;BME280;51139;45.626;6.850;2023-05-08T09:25:15;82301.28;;;9.78;100.00
64711;BME280;51139;45.626;6.850;2023-05-08T09:27:43;82304.25;;;9.82;100.00
64711;BME280;51139;45.626;6.850;2023-05-08T09:30:10;82310.50;;;9.95;100.00
64711;BME280;51139;45.626;6.850;2023-05-08T09:32:38;82313.31;;;10.22;100.00
64711;BME280;51139;45.626;6.850;2023-05-08T09:35:05;82309.81;;;10.62;100.00
64711;BME280;51139;45.626;6.850;2023-05-08T09:37:31;82315.03;;;10.70;100.00
64711;BME280;51139;45.626;6.850;2023-05-08T09:40:17;82313.31;;;10.83;100.00
64711;BME280;51139;45.626;6.850;2023-05-08T09:42:43;82312.13;;;11.11;100.00
64711;BME280;51139;45.626;6.850;2023-05-08T09:45:09;82314.41;;;10.62;100.00
64711;BME280;51139;45.626;6.850;2023-05-08T09:47:35;82317.97;;;10.74;100.00
64711;BME280;51139;45.626;6.850;2023-05-08T09:50:08;82327.50;;;10.77;100.00
64711;BME280;51139;45.626;6.850;2023-05-08T09:52:36;82324.72;;;10.50;100.00
64711;BME280;51139;45.626;6.850;2023-05-08T09:55:06;82325.00;;;10.62;100.00
64711;BME280;51139;45.626;6.850;2023-05-08T09:57:34;82326.88;;;10.69;100.00
64711;BME280;51139;45.626;6.850;2023-05-08T10:00:21;82325.41;;;10.76;100.00
64711;BME280;51139;45.626;6.850;2023-05-08T10:03:01;82328.34;;;10.62;100.00
64711;BME280;51139;45.626;6.850;2023-05-08T10:05:29;82332.16;;;10.87;100.00
64711;BME280;51139;45.626;6.850;2023-05-08T10:07:56;82331.94;;;10.75;100.00
64711;BME280;51139;45.626;6.850;2023-05-08T10:10:27;82327.91;;;10.74;100.00
64711;BME280;51139;45.626;6.850;2023-05-08T10:12:54;82329.81;;;10.91;100.00
64711;BME280;51139;45.626;6.850;2023-05-08T10:15:29;82324.69;;;11.11;93.50
64711;BME280;51139;45.626;6.850;2023-05-08T10:20:27;82331.53;;;10.78;100.00
64711;BME280;51139;45.626;6.850;2023-05-08T10:22:55;82340.75;;;10.95;100.00
64711;BME280;51139;45.626;6.850;2023-05-08T10:25:21;82341.81;;;10.74;100.00
64711;BME280;51139;45.626;6.850;2023-05-08T10:27:54;82347.75;;;11.18;99.28
64711;BME280;51139;45.626;6.850;2023-05-08T10:30:25;82352.19;;;11.15;93.69
64711;BME280;51139;45.626;6.850;2023-05-08T10:32:52;82358.31;;;11.53;93.60
64711;BME280;51139;45.626;6.850;2023-05-08T10:35:21;82356.63;;;11.48;100.00
64711;BME280;51139;45.626;6.850;2023-05-08T10:37:47;82352.63;;;11.57;100.00
64711;BME280;51139;45.626;6.850;2023-05-08T10:40:13;82352.25;;;11.88;100.00
64711;BME280;51139;45.626;6.850;2023-05-08T10:42:40;82345.59;;;11.69;99.12
64711;BME280;51139;45.626;6.850;2023-05-08T10:45:06;82356.28;;;11.89;98.36
64711;BME280;51139;45.626;6.850;2023-05-08T10:53:04;82354.84;;;11.33;100.00
64711;BME280;51139;45.626;6.850;2023-05-08T10:55:32;82352.00;;;11.66;100.00
64711;BME280;51139;45.626;6.850;2023-05-08T10:58:40;82362.13;;;11.87;100.00
64711;BME280;51139;45.626;6.850;2023-05-08T11:03:32;82353.88;;;11.56;96.18
64711;BME280;51139;45.626;6.850;2023-05-08T11:05:59;82363.78;;;11.55;100.00
64711;BME280;51139;45.626;6.850;2023-05-08T11:08:26;82361.06;;;11.45;99.02
64711;BME280;51139;45.626;6.850;2023-05-08T11:13:36;82360.84;;;10.98;99.57
64711;BME280;51139;45.626;6.850;2023-05-08T11:16:02;82357.75;;;11.09;100.00
64711;BME280;51139;45.626;6.850;2023-05-08T11:18:28;82365.06;;;11.36;100.00
64711;BME280;51139;45.626;6.850;2023-05-08T11:20:59;82357.03;;;11.27;97.86
64711;BME280;51139;45.626;6.850;2023-05-08T11:23:25;82358.69;;;11.22;96.51
64711;BME280;51139;45.626;6.850;2023-05-08T11:26:05;82359.66;;;11.44;97.21
64711;BME280;51139;45.626;6.850;2023-05-08T11:28:37;82363.25;;;11.39;96.77
64711;BME280;51139;45.626;6.850;2023-05-08T11:31:04;82360.81;;;11.51;97.70
64711;BME280;51139;45.626;6.850;2023-05-08T11:33:31;82360.56;;;11.74;98.99
64711;BME280;51139;45.626;6.850;2023-05-08T11:35:59;82357.94;;;11.84;92.22
64711;BME280;51139;45.626;6.850;2023-05-08T11:38:29;82364.44;;;11.28;92.55
64711;BME280;51139;45.626;6.850;2023-05-08T11:45:52;82358.03;;;11.49;96.12
64711;BME280;51139;45.626;6.850;2023-05-08T11:48:18;82366.56;;;11.75;93.12
64711;BME280;51139;45.626;6.850;2023-05-08T11:50:43;82365.22;;;11.38;91.31
64711;BME280;51139;45.626;6.850;2023-05-08T11:53:09;82363.69;;;11.63;89.63
64711;BME280;51139;45.626;6.850;2023-05-08T11:55:35;82362.94;;;11.52;90.16
64711;BME280;51139;45.626;6.850;2023-05-08T11:58:00;82359.16;;;11.73;90.44
64711;BME280;51139;45.626;6.850;2023-05-08T12:00:26;82353.28;;;11.75;83.81
64711;BME280;51139;45.626;6.850;2023-05-08T12:02:52;82363.94;;;12.02;78.68
64711;BME280;51139;45.626;6.850;2023-05-08T12:05:25;82364.69;;;12.13;79.95
64711;BME280;51139;45.626;6.850;2023-05-08T12:07:51;82360.25;;;11.97;85.40
64711;BME280;51139;45.626;6.850;2023-05-08T12:10:16;82360.94;;;11.98;78.69
64711;BME280;51139;45.626;6.850;2023-05-08T12:12:42;82355.34;;;11.94;76.64
64711;BME280;51139;45.626;6.850;2023-05-08T12:15:12;82357.19;;;12.29;80.15
64711;BME280;51139;45.626;6.850;2023-05-08T12:17:39;82350.25;;;12.06;70.66
64711;BME280;51139;45.626;6.850;2023-05-08T12:20:15;82354.81;;;11.95;73.37
64711;BME280;51139;45.626;6.850;2023-05-08T12:22:43;82355.00;;;12.07;84.03
64711;BME280;51139;45.626;6.850;2023-05-08T12:25:15;82352.63;;;12.39;79.19
64711;BME280;51139;45.626;6.850;2023-05-08T12:27:42;82349.03;;;12.17;84.07
64711;BME280;51139;45.626;6.850;2023-05-08T12:30:09;82348.28;;;11.79;87.37
64711;BME280;51139;45.626;6.850;2023-05-08T12:32:36;82350.84;;;12.14;78.87
64711;BME280;51139;45.626;6.850;2023-05-08T12:35:02;82356.59;;;11.93;80.19
64711;BME280;51139;45.626;6.850;2023-05-08T12:37:28;82357.59;;;11.97;93.11
64711;BME280;51139;45.626;6.850;2023-05-08T12:39:53;82361.66;;;11.99;90.67
64711;BME280;51139;45.626;6.850;2023-05-08T12:42:19;82356.81;;;12.05;85.32
64711;BME280;51139;45.626;6.850;2023-05-08T12:44:51;82358.72;;;12.59;82.84
64711;BME280;51139;45.626;6.850;2023-05-08T12:47:18;82357.13;;;12.46;90.29
64711;BME280;51139;45.626;6.850;2023-05-08T12:49:44;82346.97;;;12.25;83.16
64711;BME280;51139;45.626;6.850;2023-05-08T12:52:13;82348.78;;;12.22;82.93
64711;BME280;51139;45.626;6.850;2023-05-08T12:54:45;82350.84;;;12.14;69.75
64711;BME280;51139;45.626;6.850;2023-05-08T12:57:12;82347.91;;;12.10;86.41
64711;BME280;51139;45.626;6.850;2023-05-08T12:59:39;82346.00;;;12.20;78.66
64711;BME280;51139;45.626;6.850;2023-05-08T13:02:15;82350.94;;;12.06;100.00
64711;BME280;51139;45.626;6.850;2023-05-08T13:04:41;82351.25;;;11.38;89.70
64711;BME280;51139;45.626;6.850;2023-05-08T13:07:06;82348.69;;;11.75;100.00
64711;BME280;51139;45.626;6.850;2023-05-08T13:09:32;82352.28;;;12.72;100.00
64711;BME280;51139;45.626;6.850;2023-05-08T13:11:57;82340.03;;;12.02;100.00
64711;BME280;51139;45.626;6.850;2023-05-08T13:14:23;82355.22;;;12.19;100.00
64711;BME280;51139;45.626;6.850;2023-05-08T13:16:48;82343.19;;;12.18;97.52
64711;BME280;51139;45.626;6.850;2023-05-08T13:19:14;82339.56;;;11.96;100.00
64711;BME280;51139;45.626;6.850;2023-05-08T13:21:43;82340.13;;;11.67;100.00
64711;BME280;51139;45.626;6.850;2023-05-08T13:24:15;82344.72;;;12.21;100.00
64711;BME280;51139;45.626;6.850;2023-05-08T13:26:40;82335.91;;;11.91;96.61
64711;BME280;51139;45.626;6.850;2023-05-08T13:29:06;82332.47;;;11.99;97.67
64711;BME280;51139;45.626;6.850;2023-05-08T13:31:31;82328.09;;;11.66;89.35
64711;BME280;51139;45.626;6.850;2023-05-08T13:33:56;82336.47;;;11.90;100.00
64711;BME280;51139;45.626;6.850;2023-05-08T13:36:22;82335.75;;;12.17;97.09
64711;BME280;51139;45.626;6.850;2023-05-08T13:38:49;82332.31;;;11.96;100.00
64711;BME280;51139;45.626;6.850;2023-05-08T13:41:16;82330.19;;;12.69;100.00
64711;BME280;51139;45.626;6.850;2023-05-08T13:43:41;82320.44;;;12.82;100.00
64711;BME280;51139;45.626;6.850;2023-05-08T13:46:07;82325.75;;;12.82;99.10
64711;BME280;51139;45.626;6.850;2023-05-08T13:48:32;82322.69;;;13.25;81.62